sensor_id;sensor_type;location;lat;lon;timestamp;P1;durP1;ratioP1;P2;durP2;ratioP2
10463;SDS011;5279;42.048;24.638;2023-06-19T00:02:25;5.03;;;4.10;;
10463;SDS011;5279;42.048;24.638;2023-06-19T00:04:52;4.60;;;3.90;;
10463;SDS011;5279;42.048;24.638;2023-06-19T00:07:19;4.77;;;4.37;;
10463;SDS011;5279;42.048;24.638;2023-06-19T00:09:48;4.70;;;4.10;;
10463;SDS011;5279;42.048;24.638;2023-06-19T00:12:16;4.63;;;4.23;;
10463;SDS011;5279;42.048;24.638;2023-06-19T00:14:43;4.27;;;3.93;;
10463;SDS011;5279;42.048;24.638;2023-06-19T00:17:10;4.53;;;4.13;;
10463;SDS011;5279;42.048;24.638;2023-06-19T00:19:37;4.77;;;4.37;;
10463;SDS011;5279;42.048;24.638;2023-06-19T00:22:04;4.57;;;4.13;;
10463;SDS011;5279;42.048;24.638;2023-06-19T00:24:31;5.20;;;4.00;;
10463;SDS011;5279;42.048;24.638;2023-06-19T00:27:00;9.53;;;4.17;;
10463;SDS011;5279;42.048;24.638;2023-06-19T00:29:28;5.43;;;3.90;;
10463;SDS011;5279;42.048;24.638;2023-06-19T00:31:56;4.90;;;4.40;;
10463;SDS011;5279;42.048;24.638;2023-06-19T00:34:23;4.60;;;4.20;;
10463;SDS011;5279;42.048;24.638;2023-06-19T00:36:50;4.33;;;3.93;;
10463;SDS011;5279;42.048;24.638;2023-06-19T00:39:21;5.00;;;4.10;;
10463;SDS011;5279;42.048;24.638;2023-06-19T00:41:48;4.30;;;3.93;;
10463;SDS011;5279;42.048;24.638;2023-06-19T00:44:18;4.33;;;3.93;;
10463;SDS011;5279;42.048;24.638;2023-06-19T00:46:45;4.30;;;3.90;;
10463;SDS011;5279;42.048;24.638;2023-06-19T00:49:13;5.00;;;4.30;;
10463;SDS011;5279;42.048;24.638;2023-06-19T00:51:40;4.40;;;4.00;;
10463;SDS011;5279;42.048;24.638;2023-06-19T00:54:07;4.90;;;3.90;;
10463;SDS011;5279;42.048;24.638;2023-06-19T00:56:35;5.13;;;4.07;;
10463;SDS011;5279;42.048;24.638;2023-06-19T00:59:05;4.10;;;3.67;;
10463;SDS011;5279;42.048;24.638;2023-06-19T01:01:38;4.10;;;3.70;;
10463;SDS011;5279;42.048;24.638;2023-06-19T01:04:06;4.00;;;3.70;;
10463;SDS011;5279;42.048;24.638;2023-06-19T01:06:35;4.47;;;4.07;;
10463;SDS011;5279;42.048;24.638;2023-06-19T01:09:08;4.67;;;4.23;;
10463;SDS011;5279;42.048;24.638;2023-06-19T01:11:41;4.30;;;3.80;;
10463;SDS011;5279;42.048;24.638;2023-06-19T01:14:14;4.27;;;3.80;;
10463;SDS011;5279;42.048;24.638;2023-06-19T01:16:46;4.50;;;3.53;;
10463;SDS011;5279;42.048;24.638;2023-06-19T01:19:15;4.77;;;3.87;;
10463;SDS011;5279;42.048;24.638;2023-06-19T01:21:44;4.40;;;4.00;;
10463;SDS011;5279;42.048;24.638;2023-06-19T01:24:13;4.20;;;3.60;;
10463;SDS011;5279;42.048;24.638;2023-06-19T01:26:40;3.70;;;3.40;;
10463;SDS011;5279;42.048;24.638;2023-06-19T01:29:11;4.10;;;3.73;;
10463;SDS011;5279;42.048;24.638;2023-06-19T01:31:42;4.07;;;3.50;;
10463;SDS011;5279;42.048;24.638;2023-06-19T01:34:21;3.80;;;3.50;;
10463;SDS011;5279;42.048;24.638;2023-06-19T01:36:52;4.43;;;3.87;;
10463;SDS011;5279;42.048;24.638;2023-06-19T01:39:23;4.03;;;3.60;;
10463;SDS011;5279;42.048;24.638;2023-06-19T01:41:52;5.57;;;3.97;;
10463;SDS011;5279;42.048;24.638;2023-06-19T01:44:20;4.57;;;4.17;;
10463;SDS011;5279;42.048;24.638;2023-06-19T01:46:47;3.63;;;3.30;;
10463;SDS011;5279;42.048;24.638;2023-06-19T01:49:15;4.17;;;3.77;;
10463;SDS011;5279;42.048;24.638;2023-06-19T01:51:42;5.27;;;3.37;;
10463;SDS011;5279;42.048;24.638;2023-06-19T01:54:09;5.30;;;4.10;;
10463;SDS011;5279;42.048;24.638;2023-06-19T01:56:37;4.67;;;3.90;;
10463;SDS011;5279;42.048;24.638;2023-06-19T01:59:04;4.20;;;3.80;;
10463;SDS011;5279;42.048;24.638;2023-06-19T02:01:31;4.27;;;3.87;;
10463;SDS011;5279;42.048;24.638;2023-06-19T02:03:58;4.77;;;3.87;;
10463;SDS011;5279;42.048;24.638;2023-06-19T02:06:24;4.20;;;3.80;;
10463;SDS011;5279;42.048;24.638;2023-06-19T02:08:51;4.23;;;3.83;;
10463;SDS011;5279;42.048;24.638;2023-06-19T02:11:18;4.17;;;3.70;;
10463;SDS011;5279;42.048;24.638;2023-06-19T02:13:46;4.20;;;3.60;;
10463;SDS011;5279;42.048;24.638;2023-06-19T02:16:13;4.40;;;4.00;;
10463;SDS011;5279;42.048;24.638;2023-06-19T02:18:40;4.43;;;3.70;;
10463;SDS011;5279;42.048;24.638;2023-06-19T02:21:07;4.93;;;4.20;;
10463;SDS011;5279;42.048;24.638;2023-06-19T02:23:34;4.23;;;3.67;;
10463;SDS011;5279;42.048;24.638;2023-06-19T02:26:01;5.20;;;3.70;;
10463;SDS011;5279;42.048;24.638;2023-06-19T02:28:28;4.23;;;3.87;;
10463;SDS011;5279;42.048;24.638;2023-06-19T02:30:56;4.00;;;3.70;;
10463;SDS011;5279;42.048;24.638;2023-06-19T02:33:23;4.40;;;3.90;;
10463;SDS011;5279;42.048;24.638;2023-06-19T02:35:50;4.13;;;3.73;;
10463;SDS011;5279;42.048;24.638;2023-06-19T02:38:17;3.90;;;3.50;;
10463;SDS011;5279;42.048;24.638;2023-06-19T02:40:46;4.10;;;3.70;;
10463;SDS011;5279;42.048;24.638;2023-06-19T02:43:13;4.60;;;4.20;;
10463;SDS011;5279;42.048;24.638;2023-06-19T02:45:40;3.80;;;3.47;;
10463;SDS011;5279;42.048;24.638;2023-06-19T02:48:09;3.77;;;3.47;;
10463;SDS011;5279;42.048;24.638;2023-06-19T02:50:36;4.17;;;3.77;;
10463;SDS011;5279;42.048;24.638;2023-06-19T02:53:03;3.80;;;3.50;;
10463;SDS011;5279;42.048;24.638;2023-06-19T02:55:30;4.00;;;3.60;;
10463;SDS011;5279;42.048;24.638;2023-06-19T02:57:57;3.83;;;3.53;;
10463;SDS011;5279;42.048;24.638;2023-06-19T03:00:23;4.07;;;3.67;;
10463;SDS011;5279;42.048;24.638;2023-06-19T03:02:52;4.07;;;3.67;;
10463;SDS011;5279;42.048;24.638;2023-06-19T03:05:20;4.13;;;3.77;;
10463;SDS011;5279;42.048;24.638;2023-06-19T03:07:47;3.73;;;3.43;;
10463;SDS011;5279;42.048;24.638;2023-06-19T03:10:14;3.93;;;3.63;;
10463;SDS011;5279;42.048;24.638;2023-06-19T03:12:41;3.60;;;3.30;;
10463;SDS011;5279;42.048;24.638;2023-06-19T03:15:09;3.80;;;3.47;;
10463;SDS011;5279;42.048;24.638;2023-06-19T03:17:36;3.67;;;3.37;;
10463;SDS011;5279;42.048;24.638;2023-06-19T03:20:03;3.73;;;3.40;;
10463;SDS011;5279;42.048;24.638;2023-06-19T03:22:33;4.53;;;3.53;;
10463;SDS011;5279;42.048;24.638;2023-06-19T03:25:00;4.57;;;3.47;;
10463;SDS011;5279;42.048;24.638;2023-06-19T03:27:26;4.20;;;3.27;;
10463;SDS011;5279;42.048;24.638;2023-06-19T03:29:54;4.63;;;4.20;;
10463;SDS011;5279;42.048;24.638;2023-06-19T03:32:21;4.07;;;3.67;;
10463;SDS011;5279;42.048;24.638;2023-06-19T03:34:48;5.30;;;3.60;;
10463;SDS011;5279;42.048;24.638;2023-06-19T03:37:15;3.93;;;3.63;;
10463;SDS011;5279;42.048;24.638;2023-06-19T03:39:43;3.43;;;3.13;;
10463;SDS011;5279;42.048;24.638;2023-06-19T03:42:10;3.80;;;3.50;;
10463;SDS011;5279;42.048;24.638;2023-06-19T03:44:37;4.20;;;3.70;;
10463;SDS011;5279;42.048;24.638;2023-06-19T03:47:05;3.83;;;3.47;;
10463;SDS011;5279;42.048;24.638;2023-06-19T03:49:32;3.50;;;3.20;;
10463;SDS011;5279;42.048;24.638;2023-06-19T03:51:59;4.00;;;3.60;;
10463;SDS011;5279;42.048;24.638;2023-06-19T03:54:26;4.00;;;3.70;;
10463;SDS011;5279;42.048;24.638;2023-06-19T03:56:54;4.73;;;3.63;;
10463;SDS011;5279;42.048;24.638;2023-06-19T03:59:21;3.97;;;3.57;;
10463;SDS011;5279;42.048;24.638;2023-06-19T04:01:48;4.37;;;3.17;;
10463;SDS011;5279;42.048;24.638;2023-06-19T04:04:15;3.90;;;3.50;;
10463;SDS011;5279;42.048;24.638;2023-06-19T04:06:41;4.47;;;3.43;;
10463;SDS011;5279;42.048;24.638;2023-06-19T04:09:08;4.23;;;3.83;;
10463;SDS011;5279;42.048;24.638;2023-06-19T04:11:35;3.90;;;3.60;;
10463;SDS011;5279;42.048;24.638;2023-06-19T04:14:04;3.67;;;3.23;;
10463;SDS011;5279;42.048;24.638;2023-06-19T04:16:30;3.80;;;3.50;;
10463;SDS011;5279;42.048;24.638;2023-06-19T04:18:57;3.80;;;3.50;;
10463;SDS011;5279;42.048;24.638;2023-06-19T04:21:25;3.83;;;3.53;;
10463;SDS011;5279;42.048;24.638;2023-06-19T04:23:52;3.97;;;3.67;;
10463;SDS011;5279;42.048;24.638;2023-06-19T04:26:19;3.83;;;3.53;;
10463;SDS011;5279;42.048;24.638;2023-06-19T04:28:46;5.43;;;3.73;;
10463;SDS011;5279;42.048;24.638;2023-06-19T04:31:14;5.13;;;3.60;;
10463;SDS011;5279;42.048;24.638;2023-06-19T04:33:43;4.63;;;3.47;;
10463;SDS011;5279;42.048;24.638;2023-06-19T04:36:10;4.27;;;3.87;;
10463;SDS011;5279;42.048;24.638;2023-06-19T04:38:36;3.73;;;3.43;;
10463;SDS011;5279;42.048;24.638;2023-06-19T04:41:03;3.93;;;3.63;;
10463;SDS011;5279;42.048;24.638;2023-06-19T04:43:30;4.17;;;3.87;;
10463;SDS011;5279;42.048;24.638;2023-06-19T04:45:58;3.87;;;3.57;;
10463;SDS011;5279;42.048;24.638;2023-06-19T04:48:27;4.20;;;3.77;;
10463;SDS011;5279;42.048;24.638;2023-06-19T04:50:55;3.50;;;3.20;;
10463;SDS011;5279;42.048;24.638;2023-06-19T04:53:22;4.33;;;3.93;;
10463;SDS011;5279;42.048;24.638;2023-06-19T04:55:50;3.50;;;3.20;;
10463;SDS011;5279;42.048;24.638;2023-06-19T04:58:19;3.57;;;3.27;;
10463;SDS011;5279;42.048;24.638;2023-06-19T05:00:46;5.30;;;3.80;;
10463;SDS011;5279;42.048;24.638;2023-06-19T05:03:16;3.50;;;3.20;;
10463;SDS011;5279;42.048;24.638;2023-06-19T05:05:44;4.97;;;3.53;;
10463;SDS011;5279;42.048;24.638;2023-06-19T05:08:12;3.87;;;3.57;;
10463;SDS011;5279;42.048;24.638;2023-06-19T05:10:39;4.37;;;3.27;;
10463;SDS011;5279;42.048;24.638;2023-06-19T05:13:06;3.43;;;3.13;;
10463;SDS011;5279;42.048;24.638;2023-06-19T05:15:33;4.07;;;3.63;;
10463;SDS011;5279;42.048;24.638;2023-06-19T05:17:59;5.37;;;3.80;;
10463;SDS011;5279;42.048;24.638;2023-06-19T05:20:26;4.07;;;3.67;;
10463;SDS011;5279;42.048;24.638;2023-06-19T05:22:54;8.87;;;4.00;;
10463;SDS011;5279;42.048;24.638;2023-06-19T05:25:21;4.03;;;3.40;;
10463;SDS011;5279;42.048;24.638;2023-06-19T05:27:48;3.90;;;3.60;;
10463;SDS011;5279;42.048;24.638;2023-06-19T05:30:15;3.60;;;3.30;;
10463;SDS011;5279;42.048;24.638;2023-06-19T05:32:42;4.43;;;3.40;;
10463;SDS011;5279;42.048;24.638;2023-06-19T05:35:09;3.50;;;3.20;;
10463;SDS011;5279;42.048;24.638;2023-06-19T05:37:36;3.90;;;3.13;;
10463;SDS011;5279;42.048;24.638;2023-06-19T05:40:06;3.83;;;3.53;;
10463;SDS011;5279;42.048;24.638;2023-06-19T05:42:35;3.57;;;3.27;;
10463;SDS011;5279;42.048;24.638;2023-06-19T05:45:02;3.53;;;3.23;;
10463;SDS011;5279;42.048;24.638;2023-06-19T05:47:29;3.67;;;3.37;;
10463;SDS011;5279;42.048;24.638;2023-06-19T05:49:56;3.97;;;3.67;;
10463;SDS011;5279;42.048;24.638;2023-06-19T05:52:23;3.83;;;3.27;;
10463;SDS011;5279;42.048;24.638;2023-06-19T05:54:50;3.73;;;3.43;;
10463;SDS011;5279;42.048;24.638;2023-06-19T05:57:20;4.33;;;3.20;;
10463;SDS011;5279;42.048;24.638;2023-06-19T05:59:47;4.03;;;3.20;;
10463;SDS011;5279;42.048;24.638;2023-06-19T06:02:14;4.50;;;3.30;;
10463;SDS011;5279;42.048;24.638;2023-06-19T06:04:41;3.43;;;3.13;;
10463;SDS011;5279;42.048;24.638;2023-06-19T06:07:08;3.83;;;3.53;;
10463;SDS011;5279;42.048;24.638;2023-06-19T06:09:35;3.63;;;3.30;;
10463;SDS011;5279;42.048;24.638;2023-06-19T06:12:02;3.40;;;3.10;;
10463;SDS011;5279;42.048;24.638;2023-06-19T06:14:31;3.50;;;3.20;;
10463;SDS011;5279;42.048;24.638;2023-06-19T06:16:58;4.00;;;3.33;;
10463;SDS011;5279;42.048;24.638;2023-06-19T06:19:25;4.10;;;3.60;;
10463;SDS011;5279;42.048;24.638;2023-06-19T06:21:52;3.47;;;3.17;;
10463;SDS011;5279;42.048;24.638;2023-06-19T06:24:18;3.60;;;3.30;;
10463;SDS011;5279;42.048;24.638;2023-06-19T06:26:45;3.87;;;3.57;;
10463;SDS011;5279;42.048;24.638;2023-06-19T06:29:12;5.87;;;3.47;;
10463;SDS011;5279;42.048;24.638;2023-06-19T06:31:40;3.47;;;3.17;;
10463;SDS011;5279;42.048;24.638;2023-06-19T06:34:07;3.40;;;3.07;;
10463;SDS011;5279;42.048;24.638;2023-06-19T06:36:34;3.63;;;3.30;;
10463;SDS011;5279;42.048;24.638;2023-06-19T06:39:01;3.63;;;3.30;;
10463;SDS011;5279;42.048;24.638;2023-06-19T06:41:29;3.57;;;3.27;;
10463;SDS011;5279;42.048;24.638;2023-06-19T06:43:55;3.37;;;3.07;;
10463;SDS011;5279;42.048;24.638;2023-06-19T06:46:22;3.30;;;3.07;;
10463;SDS011;5279;42.048;24.638;2023-06-19T06:48:51;3.97;;;3.00;;
10463;SDS011;5279;42.048;24.638;2023-06-19T06:51:18;3.87;;;3.10;;
10463;SDS011;5279;42.048;24.638;2023-06-19T06:53:45;3.30;;;3.00;;
10463;SDS011;5279;42.048;24.638;2023-06-19T06:56:11;3.50;;;3.20;;
10463;SDS011;5279;42.048;24.638;2023-06-19T06:58:38;3.50;;;3.20;;
10463;SDS011;5279;42.048;24.638;2023-06-19T07:01:05;3.90;;;3.17;;
10463;SDS011;5279;42.048;24.638;2023-06-19T07:03:32;3.53;;;3.23;;
10463;SDS011;5279;42.048;24.638;2023-06-19T07:06:00;4.90;;;3.43;;
10463;SDS011;5279;42.048;24.638;2023-06-19T07:08:28;3.20;;;3.00;;
10463;SDS011;5279;42.048;24.638;2023-06-19T07:10:54;3.53;;;3.20;;
10463;SDS011;5279;42.048;24.638;2023-06-19T07:13:21;3.60;;;3.30;;
10463;SDS011;5279;42.048;24.638;2023-06-19T07:15:48;3.00;;;2.80;;
10463;SDS011;5279;42.048;24.638;2023-06-19T07:18:15;3.57;;;3.03;;
10463;SDS011;5279;42.048;24.638;2023-06-19T07:20:42;5.20;;;2.83;;
10463;SDS011;5279;42.048;24.638;2023-06-19T07:23:10;2.97;;;2.67;;
10463;SDS011;5279;42.048;24.638;2023-06-19T07:25:37;3.73;;;3.37;;
10463;SDS011;5279;42.048;24.638;2023-06-19T07:28:04;3.30;;;3.10;;
10463;SDS011;5279;42.048;24.638;2023-06-19T07:30:31;3.87;;;3.00;;
10463;SDS011;5279;42.048;24.638;2023-06-19T07:32:58;3.33;;;3.03;;
10463;SDS011;5279;42.048;24.638;2023-06-19T07:35:24;3.73;;;3.10;;
10463;SDS011;5279;42.048;24.638;2023-06-19T07:37:51;3.50;;;3.20;;
10463;SDS011;5279;42.048;24.638;2023-06-19T07:40:19;3.97;;;3.10;;
10463;SDS011;5279;42.048;24.638;2023-06-19T07:42:46;4.23;;;3.83;;
10463;SDS011;5279;42.048;24.638;2023-06-19T07:45:13;3.60;;;3.30;;
10463;SDS011;5279;42.048;24.638;2023-06-19T07:47:40;5.60;;;3.17;;
10463;SDS011;5279;42.048;24.638;2023-06-19T07:50:13;3.53;;;3.23;;
10463;SDS011;5279;42.048;24.638;2023-06-19T07:52:40;2.90;;;2.70;;
10463;SDS011;5279;42.048;24.638;2023-06-19T07:55:07;3.33;;;3.13;;
10463;SDS011;5279;42.048;24.638;2023-06-19T07:57:35;3.63;;;3.33;;
10463;SDS011;5279;42.048;24.638;2023-06-19T08:00:03;3.40;;;3.10;;
10463;SDS011;5279;42.048;24.638;2023-06-19T08:02:36;3.50;;;3.20;;
10463;SDS011;5279;42.048;24.638;2023-06-19T08:05:03;4.47;;;4.10;;
10463;SDS011;5279;42.048;24.638;2023-06-19T08:07:30;3.57;;;3.27;;
10463;SDS011;5279;42.048;24.638;2023-06-19T08:09:57;3.20;;;3.00;;
10463;SDS011;5279;42.048;24.638;2023-06-19T08:12:23;3.73;;;3.40;;
10463;SDS011;5279;42.048;24.638;2023-06-19T08:14:52;3.17;;;2.97;;
10463;SDS011;5279;42.048;24.638;2023-06-19T08:17:18;3.80;;;3.50;;
10463;SDS011;5279;42.048;24.638;2023-06-19T08:19:45;3.50;;;3.20;;
10463;SDS011;5279;42.048;24.638;2023-06-19T08:22:12;3.37;;;3.13;;
10463;SDS011;5279;42.048;24.638;2023-06-19T08:24:39;3.67;;;3.37;;
10463;SDS011;5279;42.048;24.638;2023-06-19T08:27:06;3.47;;;3.17;;
10463;SDS011;5279;42.048;24.638;2023-06-19T08:29:33;3.57;;;3.27;;
10463;SDS011;5279;42.048;24.638;2023-06-19T08:32:01;3.53;;;3.23;;
10463;SDS011;5279;42.048;24.638;2023-06-19T08:34:28;3.30;;;3.00;;
10463;SDS011;5279;42.048;24.638;2023-06-19T08:36:55;3.70;;;3.40;;
10463;SDS011;5279;42.048;24.638;2023-06-19T08:39:23;3.27;;;3.00;;
10463;SDS011;5279;42.048;24.638;2023-06-19T08:41:50;4.83;;;3.13;;
10463;SDS011;5279;42.048;24.638;2023-06-19T08:44:18;3.97;;;3.10;;
10463;SDS011;5279;42.048;24.638;2023-06-19T08:46:45;3.60;;;3.30;;
10463;SDS011;5279;42.048;24.638;2023-06-19T08:49:13;3.43;;;3.13;;
10463;SDS011;5279;42.048;24.638;2023-06-19T08:51:40;3.40;;;3.10;;
10463;SDS011;5279;42.048;24.638;2023-06-19T08:54:07;3.67;;;3.37;;
10463;SDS011;5279;42.048;24.638;2023-06-19T08:56:35;3.20;;;3.00;;
10463;SDS011;5279;42.048;24.638;2023-06-19T08:59:12;3.53;;;3.23;;
10463;SDS011;5279;42.048;24.638;2023-06-19T09:01:39;3.37;;;3.17;;
10463;SDS011;5279;42.048;24.638;2023-06-19T09:04:18;3.87;;;3.57;;
10463;SDS011;5279;42.048;24.638;2023-06-19T09:06:49;3.53;;;3.23;;
10463;SDS011;5279;42.048;24.638;2023-06-19T09:09:18;3.50;;;3.20;;
10463;SDS011;5279;42.048;24.638;2023-06-19T09:11:56;4.67;;;3.57;;
10463;SDS011;5279;42.048;24.638;2023-06-19T09:14:24;4.87;;;3.70;;
10463;SDS011;5279;42.048;24.638;2023-06-19T09:16:57;4.80;;;3.70;;
10463;SDS011;5279;42.048;24.638;2023-06-19T09:19:25;4.57;;;3.30;;
10463;SDS011;5279;42.048;24.638;2023-06-19T09:21:52;4.27;;;3.50;;
10463;SDS011;5279;42.048;24.638;2023-06-19T09:24:18;3.53;;;3.33;;
10463;SDS011;5279;42.048;24.638;2023-06-19T09:26:46;3.33;;;3.13;;
10463;SDS011;5279;42.048;24.638;2023-06-19T09:29:13;3.20;;;2.90;;
10463;SDS011;5279;42.048;24.638;2023-06-19T09:31:43;3.30;;;3.03;;
10463;SDS011;5279;42.048;24.638;2023-06-19T09:34:10;4.60;;;3.67;;
10463;SDS011;5279;42.048;24.638;2023-06-19T09:36:38;3.57;;;3.27;;
10463;SDS011;5279;42.048;24.638;2023-06-19T09:39:06;3.85;;;3.40;;
10463;SDS011;5279;42.048;24.638;2023-06-19T09:41:34;5.40;;;3.13;;
10463;SDS011;5279;42.048;24.638;2023-06-19T09:44:03;3.63;;;3.33;;
10463;SDS011;5279;42.048;24.638;2023-06-19T09:46:37;3.08;;;2.88;;
10463;SDS011;5279;42.048;24.638;2023-06-19T09:49:10;4.68;;;3.70;;
10463;SDS011;5279;42.048;24.638;2023-06-19T09:51:41;2.92;;;2.72;;
10463;SDS011;5279;42.048;24.638;2023-06-19T09:54:09;3.90;;;3.28;;
10463;SDS011;5279;42.048;24.638;2023-06-19T09:56:36;3.45;;;3.15;;
10463;SDS011;5279;42.048;24.638;2023-06-19T09:59:04;3.15;;;2.95;;
10463;SDS011;5279;42.048;24.638;2023-06-19T10:01:34;3.63;;;3.33;;
10463;SDS011;5279;42.048;24.638;2023-06-19T10:04:03;3.53;;;3.23;;
10463;SDS011;5279;42.048;24.638;2023-06-19T10:06:30;3.80;;;3.23;;
10463;SDS011;5279;42.048;24.638;2023-06-19T10:09:06;3.40;;;3.10;;
10463;SDS011;5279;42.048;24.638;2023-06-19T10:11:44;3.50;;;3.20;;
10463;SDS011;5279;42.048;24.638;2023-06-19T10:14:13;3.50;;;3.20;;
10463;SDS011;5279;42.048;24.638;2023-06-19T10:16:43;3.53;;;3.23;;
10463;SDS011;5279;42.048;24.638;2023-06-19T10:19:14;3.33;;;3.13;;
10463;SDS011;5279;42.048;24.638;2023-06-19T10:21:45;3.40;;;3.17;;
10463;SDS011;5279;42.048;24.638;2023-06-19T10:24:15;3.53;;;3.22;;
10463;SDS011;5279;42.048;24.638;2023-06-19T10:26:54;3.40;;;3.10;;
10463;SDS011;5279;42.048;24.638;2023-06-19T10:29:22;3.58;;;3.28;;
10463;SDS011;5279;42.048;24.638;2023-06-19T10:31:49;3.10;;;2.90;;
10463;SDS011;5279;42.048;24.638;2023-06-19T10:34:16;3.53;;;3.22;;
10463;SDS011;5279;42.048;24.638;2023-06-19T10:36:43;4.43;;;3.30;;
10463;SDS011;5279;42.048;24.638;2023-06-19T10:39:10;3.92;;;3.10;;
10463;SDS011;5279;42.048;24.638;2023-06-19T10:41:40;3.97;;;3.55;;
10463;SDS011;5279;42.048;24.638;2023-06-19T10:44:07;3.20;;;2.90;;
10463;SDS011;5279;42.048;24.638;2023-06-19T10:46:37;3.05;;;2.85;;
10463;SDS011;5279;42.048;24.638;2023-06-19T10:49:05;3.35;;;3.15;;
10463;SDS011;5279;42.048;24.638;2023-06-19T10:51:35;3.40;;;3.10;;
10463;SDS011;5279;42.048;24.638;2023-06-19T10:54:03;3.30;;;3.10;;
10463;SDS011;5279;42.048;24.638;2023-06-19T10:56:31;3.47;;;3.17;;
10463;SDS011;5279;42.048;24.638;2023-06-19T10:59:00;3.35;;;2.83;;
10463;SDS011;5279;42.048;24.638;2023-06-19T11:01:34;3.90;;;3.10;;
10463;SDS011;5279;42.048;24.638;2023-06-19T11:04:02;3.08;;;2.80;;
10463;SDS011;5279;42.048;24.638;2023-06-19T11:06:30;3.63;;;3.08;;
10463;SDS011;5279;42.048;24.638;2023-06-19T11:08:58;4.88;;;3.13;;
10463;SDS011;5279;42.048;24.638;2023-06-19T11:11:34;4.45;;;2.92;;
10463;SDS011;5279;42.048;24.638;2023-06-19T11:14:03;2.80;;;2.60;;
10463;SDS011;5279;42.048;24.638;2023-06-19T11:16:30;3.10;;;2.65;;
10463;SDS011;5279;42.048;24.638;2023-06-19T11:19:00;2.47;;;2.28;;
10463;SDS011;5279;42.048;24.638;2023-06-19T11:21:30;2.90;;;2.70;;
10463;SDS011;5279;42.048;24.638;2023-06-19T11:23:58;2.80;;;2.55;;
10463;SDS011;5279;42.048;24.638;2023-06-19T11:26:25;2.85;;;2.65;;
10463;SDS011;5279;42.048;24.638;2023-06-19T11:28:52;2.58;;;2.38;;
10463;SDS011;5279;42.048;24.638;2023-06-19T11:31:25;2.80;;;2.60;;
10463;SDS011;5279;42.048;24.638;2023-06-19T11:33:57;2.72;;;2.45;;
10463;SDS011;5279;42.048;24.638;2023-06-19T11:36:24;2.50;;;2.30;;
10463;SDS011;5279;42.048;24.638;2023-06-19T11:38:51;2.58;;;2.38;;
10463;SDS011;5279;42.048;24.638;2023-06-19T11:41:24;2.25;;;2.05;;
10463;SDS011;5279;42.048;24.638;2023-06-19T11:43:57;3.30;;;2.20;;
10463;SDS011;5279;42.048;24.638;2023-06-19T11:46:29;3.08;;;2.47;;
10463;SDS011;5279;42.048;24.638;2023-06-19T11:49:06;2.53;;;2.33;;
10463;SDS011;5279;42.048;24.638;2023-06-19T11:51:34;2.38;;;2.17;;
10463;SDS011;5279;42.048;24.638;2023-06-19T11:54:01;2.70;;;2.50;;
10463;SDS011;5279;42.048;24.638;2023-06-19T11:56:28;2.88;;;2.45;;
10463;SDS011;5279;42.048;24.638;2023-06-19T11:58:55;2.35;;;2.25;;
10463;SDS011;5279;42.048;24.638;2023-06-19T12:01:22;2.65;;;2.13;;
10463;SDS011;5279;42.048;24.638;2023-06-19T12:03:50;2.60;;;2.47;;
10463;SDS011;5279;42.048;24.638;2023-06-19T12:06:17;2.40;;;2.20;;
10463;SDS011;5279;42.048;24.638;2023-06-19T12:08:44;3.95;;;2.30;;
10463;SDS011;5279;42.048;24.638;2023-06-19T12:11:11;2.92;;;2.40;;
10463;SDS011;5279;42.048;24.638;2023-06-19T12:13:38;2.55;;;2.30;;
10463;SDS011;5279;42.048;24.638;2023-06-19T12:16:06;2.30;;;2.10;;
10463;SDS011;5279;42.048;24.638;2023-06-19T12:18:32;2.47;;;2.28;;
10463;SDS011;5279;42.048;24.638;2023-06-19T12:21:01;3.60;;;2.35;;
10463;SDS011;5279;42.048;24.638;2023-06-19T12:23:28;2.75;;;2.50;;
10463;SDS011;5279;42.048;24.638;2023-06-19T12:25:55;3.35;;;2.40;;
10463;SDS011;5279;42.048;24.638;2023-06-19T12:28:22;2.38;;;2.17;;
10463;SDS011;5279;42.048;24.638;2023-06-19T12:30:50;2.50;;;2.30;;
10463;SDS011;5279;42.048;24.638;2023-06-19T12:33:18;2.38;;;2.17;;
10463;SDS011;5279;42.048;24.638;2023-06-19T12:35:45;2.70;;;2.25;;
10463;SDS011;5279;42.048;24.638;2023-06-19T12:38:14;2.85;;;2.45;;
10463;SDS011;5279;42.048;24.638;2023-06-19T12:40:43;3.40;;;2.70;;
10463;SDS011;5279;42.048;24.638;2023-06-19T12:43:10;2.47;;;2.03;;
10463;SDS011;5279;42.048;24.638;2023-06-19T12:45:37;2.13;;;1.92;;
10463;SDS011;5279;42.048;24.638;2023-06-19T12:48:03;2.17;;;1.98;;
10463;SDS011;5279;42.048;24.638;2023-06-19T12:50:30;3.42;;;2.00;;
10463;SDS011;5279;42.048;24.638;2023-06-19T12:52:57;3.33;;;2.30;;
10463;SDS011;5279;42.048;24.638;2023-06-19T12:55:26;3.05;;;2.22;;
10463;SDS011;5279;42.048;24.638;2023-06-19T12:57:52;2.17;;;1.98;;
10463;SDS011;5279;42.048;24.638;2023-06-19T13:00:19;2.58;;;2.35;;
10463;SDS011;5279;42.048;24.638;2023-06-19T13:02:46;4.00;;;1.83;;
10463;SDS011;5279;42.048;24.638;2023-06-19T13:05:13;3.55;;;2.33;;
10463;SDS011;5279;42.048;24.638;2023-06-19T13:07:40;2.55;;;2.17;;
10463;SDS011;5279;42.048;24.638;2023-06-19T13:10:07;2.60;;;2.40;;
10463;SDS011;5279;42.048;24.638;2023-06-19T13:12:36;2.78;;;2.58;;
10463;SDS011;5279;42.048;24.638;2023-06-19T13:15:03;3.33;;;2.35;;
10463;SDS011;5279;42.048;24.638;2023-06-19T13:17:30;2.58;;;2.33;;
10463;SDS011;5279;42.048;24.638;2023-06-19T13:19:57;3.25;;;2.28;;
10463;SDS011;5279;42.048;24.638;2023-06-19T13:22:24;2.40;;;2.20;;
10463;SDS011;5279;42.048;24.638;2023-06-19T13:24:51;2.55;;;2.17;;
10463;SDS011;5279;42.048;24.638;2023-06-19T13:27:18;3.58;;;2.40;;
10463;SDS011;5279;42.048;24.638;2023-06-19T13:29:46;2.60;;;2.40;;
10463;SDS011;5279;42.048;24.638;2023-06-19T13:32:14;2.60;;;2.40;;
10463;SDS011;5279;42.048;24.638;2023-06-19T13:34:40;2.50;;;2.30;;
10463;SDS011;5279;42.048;24.638;2023-06-19T13:37:08;3.45;;;2.28;;
10463;SDS011;5279;42.048;24.638;2023-06-19T13:39:36;4.53;;;2.50;;
10463;SDS011;5279;42.048;24.638;2023-06-19T13:42:05;5.43;;;2.65;;
10463;SDS011;5279;42.048;24.638;2023-06-19T13:44:32;2.53;;;2.33;;
10463;SDS011;5279;42.048;24.638;2023-06-19T13:47:00;2.42;;;2.22;;
10463;SDS011;5279;42.048;24.638;2023-06-19T13:49:27;2.75;;;2.45;;
10463;SDS011;5279;42.048;24.638;2023-06-19T13:51:54;2.30;;;2.13;;
10463;SDS011;5279;42.048;24.638;2023-06-19T13:54:21;1.75;;;1.65;;
10463;SDS011;5279;42.048;24.638;2023-06-19T13:56:48;2.53;;;2.03;;
10463;SDS011;5279;42.048;24.638;2023-06-19T13:59:16;2.35;;;2.15;;
10463;SDS011;5279;42.048;24.638;2023-06-19T14:01:43;2.40;;;2.20;;
10463;SDS011;5279;42.048;24.638;2023-06-19T14:04:11;2.58;;;2.38;;
10463;SDS011;5279;42.048;24.638;2023-06-19T14:06:38;2.20;;;2.00;;
10463;SDS011;5279;42.048;24.638;2023-06-19T14:09:07;2.40;;;2.20;;
10463;SDS011;5279;42.048;24.638;2023-06-19T14:11:34;3.05;;;2.08;;
10463;SDS011;5279;42.048;24.638;2023-06-19T14:14:01;2.17;;;1.90;;
10463;SDS011;5279;42.048;24.638;2023-06-19T14:16:28;2.15;;;2.05;;
10463;SDS011;5279;42.048;24.638;2023-06-19T14:18:55;2.47;;;2.28;;
10463;SDS011;5279;42.048;24.638;2023-06-19T14:21:23;2.15;;;2.05;;
10463;SDS011;5279;42.048;24.638;2023-06-19T14:23:50;2.10;;;1.95;;
10463;SDS011;5279;42.048;24.638;2023-06-19T14:26:16;2.40;;;2.20;;
10463;SDS011;5279;42.048;24.638;2023-06-19T14:28:43;2.45;;;2.22;;
10463;SDS011;5279;42.048;24.638;2023-06-19T14:31:10;3.72;;;2.50;;
10463;SDS011;5279;42.048;24.638;2023-06-19T14:33:37;3.10;;;2.25;;
10463;SDS011;5279;42.048;24.638;2023-06-19T14:36:04;2.35;;;2.10;;
10463;SDS011;5279;42.048;24.638;2023-06-19T14:38:33;4.22;;;2.40;;
10463;SDS011;5279;42.048;24.638;2023-06-19T14:41:00;3.30;;;2.35;;
10463;SDS011;5279;42.048;24.638;2023-06-19T14:43:27;2.97;;;2.53;;
10463;SDS011;5279;42.048;24.638;2023-06-19T14:45:55;2.80;;;2.60;;
10463;SDS011;5279;42.048;24.638;2023-06-19T14:48:22;2.60;;;2.40;;
10463;SDS011;5279;42.048;24.638;2023-06-19T14:50:48;2.83;;;2.60;;
10463;SDS011;5279;42.048;24.638;2023-06-19T14:53:15;3.15;;;2.30;;